Time;durP1;ratioP1;P1;durP2;ratioP2;P2;SDS_P1;SDS_P2;PMS_P1;PMS_P2;Temp;Humidity;BMP_temperature;BMP_pressure;BME280_temperature;BME280_humidity;BME280_pressure;Samples;Min_cycle;Max_cycle;Signal;HPM_P1;HPM_P2
2022/03/13 00:00:46;;;;;;;0.20;0.20;;;5.70;99.90;;;;;;5134550;27;21001;-87
2022/03/13 00:03:15;;;;;;;0.20;0.20;;;5.70;99.90;;;;;;5134543;27;20032;-81
2022/03/13 00:05:49;;;;;;;0.13;0.13;;;5.70;99.90;;;;;;5135941;27;20062;-88
2022/03/13 00:08:33;;;;;;;0.30;0.30;;;5.70;99.90;;;;;;5135970;27;20041;-88
2022/03/13 00:11:07;;;;;;;0.20;0.20;;;5.60;99.90;;;;;;5135330;27;20074;-88
2022/03/13 00:13:44;;;;;;;0.20;0.20;;;5.60;99.90;;;;;;5134622;27;20086;-81
2022/03/13 00:16:11;;;;;;;0.17;0.17;;;5.50;99.90;;;;;;5134904;27;20046;-88
2022/03/13 00:18:44;;;;;;;0.10;0.10;;;5.50;99.90;;;;;;5134694;27;20039;-81
2022/03/13 00:21:11;;;;;;;0.20;0.20;;;5.50;99.90;;;;;;5134072;27;20476;-81
2022/03/13 00:23:38;;;;;;;0.10;0.10;;;5.50;99.90;;;;;;5134929;27;20096;-81
2022/03/13 00:26:05;;;;;;;0.20;0.20;;;5.40;99.90;;;;;;5133947;27;20043;-81
2022/03/13 00:28:32;;;;;;;0.20;0.20;;;5.40;99.90;;;;;;5134103;27;20043;-81
2022/03/13 00:30:58;;;;;;;0.10;0.10;;;5.40;99.90;;;;;;5117474;27;20407;-87
2022/03/13 00:33:26;;;;;;;0.10;0.10;;;5.40;99.90;;;;;;5133819;27;20047;-88
2022/03/13 00:35:53;;;;;;;0.20;0.20;;;5.40;99.90;;;;;;5117271;27;20047;-81
2022/03/13 00:38:21;;;;;;;0.10;0.10;;;5.30;99.90;;;;;;5118088;28;20403;-81
2022/03/13 00:40:51;;;;;;;0.10;0.10;;;5.30;99.90;;;;;;5116932;27;20049;-81
2022/03/13 00:43:20;;;;;;;0.10;0.10;;;5.30;99.90;;;;;;5101805;27;20046;-88
2022/03/13 00:45:47;;;;;;;0.15;0.15;;;5.30;99.90;;;;;;5117483;27;20444;-81
2022/03/13 00:48:15;;;;;;;0.10;0.10;;;5.30;99.90;;;;;;5133828;27;20162;-88
2022/03/13 00:50:42;;;;;;;0.10;0.10;;;5.20;99.90;;;;;;5118153;28;20035;-87
2022/03/13 00:53:09;;;;;;;0.10;0.10;;;5.20;99.90;;;;;;5133542;27;20068;-81
2022/03/13 00:55:36;;;;;;;0.10;0.10;;;5.10;99.90;;;;;;5133908;27;20031;-81
2022/03/13 00:58:03;;;;;;;0.20;0.20;;;5.10;99.90;;;;;;5117241;28;20070;-87
2022/03/13 01:00:30;;;;;;;0.13;0.13;;;5.20;99.90;;;;;;5117456;28;20035;-81
2022/03/13 01:02:57;;;;;;;0.10;0.10;;;5.10;99.90;;;;;;5116937;28;20122;-81
2022/03/13 01:05:26;;;;;;;0.20;0.20;;;5.10;99.90;;;;;;5101385;28;20533;-88
2022/03/13 01:07:57;;;;;;;0.20;0.20;;;5.10;99.90;;;;;;5133617;28;20043;-81
2022/03/13 01:10:26;;;;;;;0.10;0.10;;;5.10;99.90;;;;;;5133833;28;20080;-87
2022/03/13 01:12:53;;;;;;;0.20;0.20;;;5.00;99.90;;;;;;5134262;28;20078;-80
2022/03/13 01:15:20;;;;;;;0.17;0.17;;;5.00;99.90;;;;;;5150345;28;20131;-87
2022/03/13 01:17:47;;;;;;;0.20;0.20;;;5.00;99.90;;;;;;5133890;28;20043;-87
2022/03/13 01:20:21;;;;;;;0.20;0.20;;;5.00;99.90;;;;;;5116208;28;20035;-81
2022/03/13 01:22:49;;;;;;;0.20;0.20;;;4.90;99.90;;;;;;5133390;28;20480;-81
2022/03/13 01:25:16;;;;;;;0.20;0.20;;;4.90;99.90;;;;;;5116934;28;20043;-87
2022/03/13 01:27:43;;;;;;;0.10;0.10;;;5.40;99.90;;;;;;5133405;28;20039;-81
2022/03/13 01:30:13;;;;;;;0.20;0.20;;;5.60;99.90;;;;;;5133142;28;20077;-88
2022/03/13 01:32:42;;;;;;;0.10;0.10;;;4.90;99.90;;;;;;5129947;28;20047;-88
2022/03/13 01:35:09;;;;;;;0.10;0.10;;;4.90;99.90;;;;;;5113235;28;20510;-87
2022/03/13 01:37:39;;;;;;;0.13;0.13;;;4.90;99.90;;;;;;5113269;28;20119;-81
2022/03/13 01:40:09;;;;;;;0.20;0.20;;;4.80;99.90;;;;;;5129485;28;20058;-87
2022/03/13 01:42:37;;;;;;;0.10;0.10;;;4.80;99.90;;;;;;5147313;28;20043;-81
2022/03/13 01:45:04;;;;;;;0.13;0.13;;;4.80;99.90;;;;;;5112676;28;20495;-80
2022/03/13 01:47:31;;;;;;;0.17;0.17;;;4.80;99.90;;;;;;5113208;28;20507;-81
2022/03/13 01:49:58;;;;;;;0.20;0.20;;;5.30;99.90;;;;;;5096335;28;20054;-81
2022/03/13 01:52:28;;;;;;;0.52;0.52;;;4.80;99.90;;;;;;5112573;28;20047;-81
2022/03/13 01:54:56;;;;;;;0.13;0.13;;;5.70;99.90;;;;;;5129934;28;20044;-81
2022/03/13 01:57:24;;;;;;;0.20;0.20;;;4.90;99.90;;;;;;5130225;28;20097;-89
2022/03/13 01:59:55;;;;;;;0.20;0.20;;;5.20;99.90;;;;;;5113412;28;20039;-87
2022/03/13 02:02:25;;;;;;;0.13;0.13;;;4.90;99.90;;;;;;5129883;28;20042;-81
2022/03/13 02:04:53;;;;;;;0.20;0.20;;;5.30;99.90;;;;;;5113813;28;20042;-88
2022/03/13 02:07:21;;;;;;;0.20;0.20;;;5.10;99.90;;;;;;5131937;28;20035;-81
2022/03/13 02:09:49;;;;;;;0.20;0.20;;;4.80;99.90;;;;;;5134284;28;20035;-87
2022/03/13 02:12:20;;;;;;;0.17;0.17;;;4.90;99.90;;;;;;5100016;28;20050;-87
2022/03/13 02:14:48;;;;;;;0.20;0.20;;;5.80;99.90;;;;;;5117539;28;20032;-88
2022/03/13 02:17:33;;;;;;;0.20;0.20;;;5.40;99.90;;;;;;5116293;28;20036;-81
2022/03/13 02:20:02;;;;;;;0.38;0.38;;;4.90;99.90;;;;;;5133812;28;20119;-81
2022/03/13 02:22:30;;;;;;;0.10;0.10;;;4.90;99.90;;;;;;5132956;28;20035;-81
2022/03/13 02:24:57;;;;;;;0.20;0.20;;;4.90;99.90;;;;;;5149818;28;20044;-81
2022/03/13 02:27:29;;;;;;;0.10;0.10;;;4.90;99.90;;;;;;5115589;28;20591;-81
2022/03/13 02:29:56;;;;;;;0.13;0.13;;;4.90;99.90;;;;;;5150042;28;20083;-81
2022/03/13 02:32:23;;;;;;;0.20;0.20;;;4.90;99.90;;;;;;5132681;28;20094;-87
2022/03/13 02:34:50;;;;;;;0.20;0.20;;;4.90;99.90;;;;;;5116608;28;20043;-80
2022/03/13 02:37:30;;;;;;;0.10;0.10;;;5.50;99.90;;;;;;5115437;28;20038;-81
2022/03/13 02:39:57;;;;;;;0.10;0.10;;;4.70;99.90;;;;;;5132909;28;20031;-81
2022/03/13 02:42:23;;;;;;;0.20;0.20;;;4.70;99.90;;;;;;5100119;28;20031;-88
2022/03/13 02:44:50;;;;;;;0.20;0.20;;;4.70;99.90;;;;;;5116829;28;20396;-88
2022/03/13 02:47:17;;;;;;;0.20;0.20;;;4.70;99.90;;;;;;5115810;28;20043;-87
2022/03/13 02:49:44;;;;;;;0.10;0.10;;;4.70;99.90;;;;;;5099416;28;20144;-88
2022/03/13 02:52:10;;;;;;;0.13;0.13;;;4.70;99.90;;;;;;5098524;28;20040;-81
2022/03/13 02:54:37;;;;;;;0.20;0.20;;;5.30;99.90;;;;;;5115874;28;20046;-88
2022/03/13 02:57:04;;;;;;;0.15;0.15;;;4.70;99.90;;;;;;5116121;28;20032;-81
2022/03/13 02:59:31;;;;;;;0.20;0.20;;;4.70;99.90;;;;;;5115106;28;20118;-81
2022/03/13 03:02:01;;;;;;;1.15;1.05;;;4.70;99.90;;;;;;5115670;28;20475;-81
2022/03/13 03:04:28;;;;;;;0.20;0.20;;;4.70;99.90;;;;;;5115269;28;20054;-88
2022/03/13 03:06:56;;;;;;;0.20;0.20;;;4.70;99.90;;;;;;5115570;28;20488;-81
2022/03/13 03:09:23;;;;;;;0.15;0.15;;;4.70;99.90;;;;;;5132039;28;20035;-88
2022/03/13 03:11:50;;;;;;;0.20;0.20;;;4.60;99.90;;;;;;5115240;28;20040;-81
2022/03/13 03:14:17;;;;;;;0.10;0.10;;;4.60;99.90;;;;;;5114315;28;20043;-81
2022/03/13 03:16:45;;;;;;;0.20;0.20;;;4.50;99.90;;;;;;5115996;28;20061;-81
2022/03/13 03:19:12;;;;;;;0.20;0.20;;;4.50;99.90;;;;;;5131539;28;20040;-81
2022/03/13 03:21:39;;;;;;;0.10;0.10;;;4.40;99.90;;;;;;5115016;28;20035;-80
2022/03/13 03:24:15;;;;;;;0.20;0.20;;;4.40;99.90;;;;;;5132708;28;20044;-87
2022/03/13 03:26:42;;;;;;;0.20;0.20;;;4.30;99.90;;;;;;5131971;28;20039;-87
2022/03/13 03:29:09;;;;;;;0.10;0.10;;;3.80;99.90;;;;;;5132492;28;20511;-87
2022/03/13 03:31:49;;;;;;;0.25;0.25;;;4.30;99.90;;;;;;5115026;28;20043;-87
2022/03/13 03:34:18;;;;;;;0.20;0.20;;;4.30;99.90;;;;;;5114601;28;20093;-87
2022/03/13 03:36:56;;;;;;;0.20;0.20;;;4.30;99.90;;;;;;5131789;28;20555;-81
2022/03/13 03:39:24;;;;;;;0.22;0.22;;;4.40;99.90;;;;;;5131451;28;20550;-87
2022/03/13 03:41:53;;;;;;;0.20;0.20;;;4.30;99.90;;;;;;5115311;28;20106;-87
2022/03/13 03:44:21;;;;;;;0.20;0.20;;;4.40;99.90;;;;;;5131310;28;20466;-80
2022/03/13 03:46:49;;;;;;;0.20;0.20;;;4.30;99.90;;;;;;5115169;28;20043;-88
2022/03/13 03:49:16;;;;;;;0.10;0.10;;;4.30;99.90;;;;;;5131579;28;20157;-81
2022/03/13 03:51:43;;;;;;;0.20;0.20;;;4.40;99.90;;;;;;5098476;28;20050;-87
2022/03/13 03:54:11;;;;;;;0.15;0.15;;;4.40;99.90;;;;;;5115099;28;20466;-80
2022/03/13 03:56:38;;;;;;;0.10;0.10;;;4.70;99.90;;;;;;5131016;28;20125;-87
2022/03/13 03:59:05;;;;;;;0.20;0.20;;;5.30;99.90;;;;;;5115103;28;20043;-80
2022/03/13 04:01:41;;;;;;;0.20;0.20;;;4.30;99.90;;;;;;5114565;28;20035;-86
2022/03/13 04:04:09;;;;;;;0.20;0.20;;;4.30;99.90;;;;;;5148415;28;20036;-81
2022/03/13 04:06:40;;;;;;;0.20;0.20;;;4.70;99.90;;;;;;5114233;28;20373;-81
2022/03/13 04:09:09;;;;;;;0.20;0.20;;;4.20;99.90;;;;;;5114995;28;20040;-81
2022/03/13 04:11:37;;;;;;;0.20;0.20;;;4.10;99.90;;;;;;5131184;28;20039;-80
2022/03/13 04:14:04;;;;;;;0.20;0.20;;;4.10;99.90;;;;;;5114204;28;20043;-80
2022/03/13 04:16:31;;;;;;;0.20;0.20;;;4.10;99.90;;;;;;5113795;28;20036;-87
2022/03/13 04:18:58;;;;;;;0.20;0.20;;;4.10;99.90;;;;;;5114366;28;20046;-87
2022/03/13 04:21:25;;;;;;;0.20;0.20;;;4.10;99.90;;;;;;5096870;28;20039;-88
2022/03/13 04:23:53;;;;;;;0.20;0.20;;;4.10;99.90;;;;;;5113609;28;20427;-80
2022/03/13 04:26:22;;;;;;;0.20;0.20;;;4.10;99.90;;;;;;5114159;28;20036;-86
2022/03/13 04:28:49;;;;;;;0.90;0.68;;;4.50;99.90;;;;;;5130670;28;20071;-87
2022/03/13 04:31:19;;;;;;;0.20;0.20;;;4.00;99.90;;;;;;5114549;28;20039;-80
2022/03/13 04:33:47;;;;;;;0.20;0.20;;;4.00;99.90;;;;;;5113648;28;20389;-87
2022/03/13 04:36:17;;;;;;;0.20;0.20;;;4.00;99.90;;;;;;5130809;28;20054;-81
2022/03/13 04:38:43;;;;;;;0.20;0.20;;;4.90;99.90;;;;;;5098378;28;20488;-87
2022/03/13 04:41:10;;;;;;;0.20;0.20;;;4.00;99.90;;;;;;5097083;28;20031;-80
2022/03/13 04:43:37;;;;;;;0.20;0.20;;;4.50;99.90;;;;;;5130656;28;20485;-87
2022/03/13 04:46:05;;;;;;;0.30;0.30;;;4.50;99.90;;;;;;5113732;28;20077;-87
2022/03/13 04:48:32;;;;;;;0.20;0.20;;;3.90;99.90;;;;;;5130736;28;20081;-87
2022/03/13 04:50:59;;;;;;;0.20;0.20;;;3.90;99.90;;;;;;5114147;28;20036;-87
2022/03/13 04:53:27;;;;;;;0.20;0.20;;;3.90;99.90;;;;;;5130174;28;20035;-81
2022/03/13 04:55:54;;;;;;;0.20;0.20;;;4.50;99.90;;;;;;5131078;28;20036;-80
2022/03/13 04:58:20;;;;;;;0.20;0.20;;;3.90;99.90;;;;;;5130476;28;20036;-80
2022/03/13 05:00:47;;;;;;;0.20;0.20;;;4.40;99.90;;;;;;5130219;28;20031;-80
2022/03/13 05:03:14;;;;;;;0.20;0.20;;;5.00;99.90;;;;;;5113439;28;20131;-80
2022/03/13 05:05:41;;;;;;;0.15;0.15;;;4.50;99.90;;;;;;5096073;28;20126;-80
2022/03/13 05:08:13;;;;;;;0.20;0.20;;;3.80;99.90;;;;;;5130481;28;20040;-80
2022/03/13 05:10:42;;;;;;;0.20;0.20;;;3.70;99.90;;;;;;5129630;28;20039;-80
2022/03/13 05:13:11;;;;;;;0.20;0.20;;;3.70;99.90;;;;;;5147424;28;20047;-81
2022/03/13 05:15:39;;;;;;;0.20;0.20;;;3.60;99.90;;;;;;5096952;28;20083;-87
2022/03/13 05:18:07;;;;;;;0.20;0.20;;;3.60;99.90;;;;;;5130654;28;20051;-87
2022/03/13 05:20:35;;;;;;;0.20;0.20;;;3.50;99.90;;;;;;5112902;28;20036;-80
2022/03/13 05:23:04;;;;;;;0.20;0.20;;;3.40;99.90;;;;;;5130507;28;20043;-80
2022/03/13 05:25:35;;;;;;;0.30;0.30;;;3.50;99.90;;;;;;5113055;28;20040;-87
2022/03/13 05:28:03;;;;;;;0.20;0.20;;;3.40;99.90;;;;;;5130549;28;20406;-80
2022/03/13 05:30:30;;;;;;;0.20;0.20;;;3.60;99.90;;;;;;5129327;28;20039;-80
2022/03/13 05:32:57;;;;;;;0.20;0.20;;;3.30;99.90;;;;;;5112637;28;20067;-80
2022/03/13 05:35:24;;;;;;;0.30;0.30;;;3.30;99.90;;;;;;5129574;28;20058;-81
2022/03/13 05:37:51;;;;;;;0.20;0.20;;;3.40;99.90;;;;;;5095627;28;20039;-86
2022/03/13 05:40:20;;;;;;;0.20;0.20;;;3.20;99.90;;;;;;5146454;28;20046;-87
2022/03/13 05:42:57;;;;;;;0.20;0.20;;;3.30;99.90;;;;;;5116931;28;20115;-80
2022/03/13 05:45:28;;;;;;;0.20;0.20;;;3.20;99.90;;;;;;5133332;28;20043;-87
2022/03/13 05:47:58;;;;;;;0.20;0.20;;;3.20;99.90;;;;;;5134051;28;20043;-81
2022/03/13 05:50:29;;;;;;;0.20;0.20;;;3.20;99.90;;;;;;5134003;28;20043;-88
2022/03/13 05:52:57;;;;;;;0.25;0.25;;;3.70;99.90;;;;;;5151025;28;20130;-87
2022/03/13 05:55:27;;;;;;;0.20;0.20;;;3.20;99.90;;;;;;5133762;28;20039;-87
2022/03/13 05:57:55;;;;;;;0.20;0.20;;;3.10;99.90;;;;;;5117700;28;20043;-87
2022/03/13 06:00:23;;;;;;;0.20;0.20;;;3.20;99.90;;;;;;5116932;28;20484;-87
2022/03/13 06:02:50;;;;;;;0.20;0.20;;;3.20;99.90;;;;;;5116502;28;20118;-80
2022/03/13 06:05:17;;;;;;;0.25;0.25;;;3.10;99.90;;;;;;5117125;28;20127;-86
2022/03/13 06:07:46;;;;;;;0.20;0.20;;;3.30;99.90;;;;;;5116835;28;20076;-87
2022/03/13 06:10:14;;;;;;;0.20;0.20;;;3.20;99.90;;;;;;5133362;28;20051;-87
2022/03/13 06:12:41;;;;;;;0.20;0.20;;;3.20;99.90;;;;;;5116534;28;20437;-87
2022/03/13 06:15:11;;;;;;;0.20;0.20;;;3.20;99.90;;;;;;5116811;28;20508;-87
2022/03/13 06:17:40;;;;;;;0.20;0.20;;;3.20;99.90;;;;;;5116207;28;20039;-87
2022/03/13 06:20:10;;;;;;;0.20;0.20;;;3.30;99.90;;;;;;5132911;28;20174;-81
2022/03/13 06:22:38;;;;;;;0.20;0.20;;;3.30;99.90;;;;;;5115410;28;20111;-80
2022/03/13 06:25:07;;;;;;;0.28;0.28;;;3.40;99.90;;;;;;5149404;27;20043;-80
2022/03/13 06:27:35;;;;;;;0.30;0.30;;;3.40;99.90;;;;;;5126460;27;20043;-86
2022/03/13 06:30:11;;;;;;;0.20;0.20;;;3.60;99.90;;;;;;5105516;28;20089;-80
2022/03/13 06:32:39;;;;;;;0.20;0.20;;;3.50;99.90;;;;;;5109997;28;20056;-81
2022/03/13 06:35:06;;;;;;;0.20;0.20;;;3.60;99.90;;;;;;5112717;28;20051;-81
2022/03/13 06:37:32;;;;;;;0.22;0.22;;;3.70;99.90;;;;;;5110027;28;20040;-87
2022/03/13 06:39:59;;;;;;;0.38;0.38;;;3.70;99.90;;;;;;5062733;28;20037;-80
2022/03/13 06:42:26;;;;;;;0.40;0.40;;;3.70;99.90;;;;;;5079472;28;20093;-81
2022/03/13 06:44:53;;;;;;;0.20;0.20;;;3.80;99.90;;;;;;5081933;28;20040;-80
2022/03/13 06:47:20;;;;;;;0.20;0.20;;;4.70;99.90;;;;;;5099050;28;20047;-87
2022/03/13 06:49:46;;;;;;;0.30;0.30;;;3.90;99.90;;;;;;5116548;28;20043;-81
2022/03/13 06:52:13;;;;;;;0.20;0.20;;;4.00;99.90;;;;;;5099269;28;20035;-87
2022/03/13 06:54:41;;;;;;;0.20;0.20;;;4.10;99.90;;;;;;5116063;28;20381;-86
2022/03/13 06:57:08;;;;;;;0.20;0.20;;;4.10;99.90;;;;;;5132848;28;20521;-80
2022/03/13 06:59:34;;;;;;;0.20;0.20;;;4.20;99.90;;;;;;5099456;28;20082;-88
2022/03/13 07:02:01;;;;;;;0.28;0.28;;;4.30;99.90;;;;;;5081943;28;20036;-87
2022/03/13 07:04:28;;;;;;;0.30;0.30;;;4.30;99.90;;;;;;5098787;28;20047;-87
2022/03/13 07:06:54;;;;;;;0.10;0.10;;;4.40;99.90;;;;;;5081821;28;20139;-81
2022/03/13 07:09:21;;;;;;;0.22;0.22;;;4.50;99.90;;;;;;5082425;28;20055;-87
2022/03/13 07:11:49;;;;;;;0.40;0.40;;;4.50;99.90;;;;;;5082091;28;20047;-81
2022/03/13 07:14:16;;;;;;;0.15;0.15;;;4.60;99.90;;;;;;5091755;28;20039;-87
2022/03/13 07:16:43;;;;;;;0.20;0.20;;;5.30;99.90;;;;;;5098386;28;20376;-87
2022/03/13 07:19:10;;;;;;;0.20;0.20;;;4.80;99.90;;;;;;5082583;28;20042;-88
2022/03/13 07:21:38;;;;;;;0.30;0.30;;;4.80;99.90;;;;;;5115255;28;20434;-80
2022/03/13 07:24:08;;;;;;;0.20;0.20;;;5.80;99.90;;;;;;5098256;28;20048;-85
2022/03/13 07:26:34;;;;;;;0.20;0.20;;;5.00;99.90;;;;;;5110054;28;20051;-85
2022/03/13 07:29:01;;;;;;;0.20;0.20;;;5.10;99.90;;;;;;5079932;28;20044;-85
2022/03/13 07:31:30;;;;;;;0.20;0.20;;;5.70;99.90;;;;;;5084286;28;20043;-81
2022/03/13 07:33:57;;;;;;;0.20;0.20;;;5.40;99.90;;;;;;5111713;27;20055;-81
2022/03/13 07:36:24;;;;;;;0.20;0.20;;;5.40;99.90;;;;;;5101869;27;20031;-80
2022/03/13 07:38:51;;;;;;;0.10;0.10;;;5.50;99.90;;;;;;5101227;27;20079;-86
2022/03/13 07:41:17;;;;;;;0.20;0.20;;;5.50;99.90;;;;;;5135005;27;20039;-81
2022/03/13 07:43:44;;;;;;;0.20;0.20;;;6.00;99.90;;;;;;5101520;27;20513;-81
2022/03/13 07:46:11;;;;;;;0.13;0.13;;;5.60;99.90;;;;;;5135240;27;20395;-81
2022/03/13 07:48:38;;;;;;;0.10;0.10;;;5.60;99.90;;;;;;5118336;27;20112;-81
2022/03/13 07:51:05;;;;;;;0.30;0.30;;;5.70;99.90;;;;;;5118036;27;20485;-84
2022/03/13 07:53:32;;;;;;;0.20;0.20;;;5.80;99.90;;;;;;5117659;27;20035;-81
2022/03/13 07:55:59;;;;;;;0.13;0.13;;;5.90;99.90;;;;;;5117947;27;20125;-81
2022/03/13 07:58:25;;;;;;;0.10;0.10;;;5.90;99.90;;;;;;5101553;27;20071;-81
2022/03/13 08:00:53;;;;;;;0.10;0.10;;;6.10;99.90;;;;;;5100692;27;20035;-86
2022/03/13 08:03:28;;;;;;;0.20;0.20;;;6.10;99.90;;;;;;5117892;27;20050;-85
2022/03/13 08:05:55;;;;;;;1.55;0.57;;;6.30;99.90;;;;;;5102495;27;20067;-85
2022/03/13 08:08:21;;;;;;;0.10;0.10;;;6.30;99.90;;;;;;5117764;27;20070;-86
2022/03/13 08:10:48;;;;;;;0.20;0.20;;;6.40;99.90;;;;;;5100516;27;20088;-85
2022/03/13 08:13:15;;;;;;;0.45;0.20;;;6.50;99.90;;;;;;5117718;27;20074;-85
2022/03/13 08:15:41;;;;;;;0.13;0.13;;;6.60;99.90;;;;;;5100756;27;20448;-80
2022/03/13 08:18:09;;;;;;;0.22;0.22;;;6.60;99.90;;;;;;5115971;27;20031;-83
2022/03/13 08:20:36;;;;;;;0.20;0.20;;;6.70;99.90;;;;;;5131873;27;20031;-82
2022/03/13 08:23:04;;;;;;;0.10;0.10;;;6.80;99.90;;;;;;5132591;27;20119;-83
2022/03/13 08:25:30;;;;;;;0.17;0.17;;;6.90;99.90;;;;;;5133695;27;20074;-85
2022/03/13 08:27:57;;;;;;;0.20;0.20;;;6.90;99.90;;;;;;5133736;27;20078;-81
2022/03/13 08:30:24;;;;;;;0.10;0.10;;;7.00;99.90;;;;;;5116724;27;20480;-81
2022/03/13 08:32:51;;;;;;;0.20;0.20;;;7.10;99.90;;;;;;5116647;27;20058;-84
2022/03/13 08:35:18;;;;;;;0.20;0.20;;;7.20;99.90;;;;;;5133391;27;20555;-85
2022/03/13 08:37:45;;;;;;;0.20;0.20;;;7.30;99.90;;;;;;5116970;27;20039;-82
2022/03/13 08:40:13;;;;;;;0.10;0.10;;;7.40;99.90;;;;;;5116473;27;20050;-81
2022/03/13 08:42:40;;;;;;;0.10;0.10;;;7.50;99.40;;;;;;5116779;27;20045;-81
2022/03/13 08:45:08;;;;;;;0.10;0.10;;;7.60;99.90;;;;;;5116259;27;20035;-81
2022/03/13 08:47:35;;;;;;;0.20;0.20;;;7.70;99.70;;;;;;5133589;27;20047;-81
2022/03/13 08:50:02;;;;;;;0.10;0.10;;;7.80;99.50;;;;;;5099857;27;20041;-82
2022/03/13 08:52:29;;;;;;;0.13;0.13;;;7.90;99.60;;;;;;5132343;27;20039;-82
2022/03/13 08:54:55;;;;;;;0.20;0.20;;;8.10;99.50;;;;;;5115070;27;20049;-82
2022/03/13 08:57:22;;;;;;;0.10;0.10;;;8.20;99.40;;;;;;5116412;28;20035;-83
2022/03/13 08:59:49;;;;;;;0.15;0.15;;;8.30;99.90;;;;;;5116273;28;20031;-84
2022/03/13 09:02:19;;;;;;;0.15;0.15;;;8.60;98.50;;;;;;5116299;28;20498;-83
2022/03/13 09:04:45;;;;;;;0.10;0.10;;;8.80;98.30;;;;;;5116544;28;20114;-85
2022/03/13 09:07:12;;;;;;;0.10;0.10;;;9.00;98.70;;;;;;5115684;28;20114;-83
2022/03/13 09:09:39;;;;;;;0.10;0.10;;;9.10;97.30;;;;;;5132356;28;20054;-86
2022/03/13 09:12:06;;;;;;;0.10;0.10;;;9.20;96.70;;;;;;5131906;28;20471;-85
2022/03/13 09:14:35;;;;;;;0.10;0.10;;;9.40;96.70;;;;;;5135848;28;20453;-84
2022/03/13 09:17:02;;;;;;;0.10;0.10;;;9.50;94.70;;;;;;5119912;27;20075;-85
2022/03/13 09:19:29;;;;;;;1.00;0.55;;;9.50;94.90;;;;;;5107651;27;20061;-87
2022/03/13 09:21:55;;;;;;;0.10;0.10;;;9.60;95.00;;;;;;5103020;27;20070;-85
2022/03/13 09:24:22;;;;;;;0.10;0.10;;;9.60;92.50;;;;;;5120246;27;20064;-85
2022/03/13 09:26:49;;;;;;;0.10;0.10;;;9.80;93.90;;;;;;5136856;27;20035;-84
2022/03/13 09:29:16;;;;;;;0.10;0.10;;;9.90;94.70;;;;;;5136481;27;20074;-84
2022/03/13 09:31:43;;;;;;;0.10;0.10;;;10.00;94.00;;;;;;5154050;27;20043;-86
2022/03/13 09:34:10;;;;;;;0.10;0.10;;;10.10;92.80;;;;;;5119086;27;20059;-84
2022/03/13 09:36:37;;;;;;;0.10;0.10;;;10.30;93.40;;;;;;5119854;27;20500;-84
2022/03/13 09:39:05;;;;;;;0.00;0.00;;;10.40;94.60;;;;;;5136242;27;20039;-84
2022/03/13 09:41:33;;;;;;;0.10;0.10;;;10.50;94.30;;;;;;5136469;27;20392;-83
2022/03/13 09:43:59;;;;;;;0.10;0.10;;;10.60;91.40;;;;;;5135972;27;20031;-87
2022/03/13 09:46:26;;;;;;;0.10;0.10;;;10.80;92.00;;;;;;5103525;27;20470;-84
2022/03/13 09:48:53;;;;;;;0.10;0.10;;;10.90;92.10;;;;;;5148964;27;20114;-85
2022/03/13 09:51:20;;;;;;;0.55;0.55;;;11.00;90.90;;;;;;5115506;28;20044;-84
2022/03/13 09:53:47;;;;;;;0.20;0.20;;;11.10;90.40;;;;;;5099580;28;20051;-85
2022/03/13 09:56:14;;;;;;;0.10;0.10;;;11.20;90.10;;;;;;5115348;27;20078;-84
2022/03/13 09:58:41;;;;;;;0.10;0.10;;;11.30;90.40;;;;;;5119195;27;20475;-86
2022/03/13 10:01:08;;;;;;;0.08;0.08;;;11.50;86.50;;;;;;5135890;27;20039;-84
2022/03/13 10:03:35;;;;;;;0.10;0.10;;;11.50;86.00;;;;;;5119281;27;20035;-85
2022/03/13 10:06:02;;;;;;;0.10;0.10;;;11.60;88.10;;;;;;5118736;27;20046;-84
2022/03/13 10:08:31;;;;;;;0.75;0.57;;;11.80;87.90;;;;;;5136485;27;20070;-84
2022/03/13 10:10:59;;;;;;;0.10;0.10;;;11.90;87.30;;;;;;5135535;27;20039;-86
2022/03/13 10:13:41;;;;;;;0.10;0.10;;;12.00;85.70;;;;;;5136068;27;20483;-86
2022/03/13 10:16:15;;;;;;;0.20;0.20;;;12.20;88.70;;;;;;5135774;27;20604;-84
2022/03/13 10:18:41;;;;;;;0.10;0.10;;;12.20;85.30;;;;;;5135861;27;20035;-84
2022/03/13 10:21:12;;;;;;;0.10;0.10;;;12.20;81.20;;;;;;5118559;27;20442;-83
2022/03/13 10:23:40;;;;;;;0.08;0.08;;;12.30;83.80;;;;;;5135815;27;20035;-84
2022/03/13 10:26:08;;;;;;;0.20;0.20;;;12.40;84.10;;;;;;5118805;27;20035;-81
2022/03/13 10:28:36;;;;;;;0.35;0.35;;;12.40;82.80;;;;;;5151714;27;20118;-82
2022/03/13 10:31:03;;;;;;;0.00;0.00;;;12.50;80.30;;;;;;5152704;27;20046;-84
2022/03/13 10:33:42;;;;;;;0.10;0.10;;;12.60;85.60;;;;;;5134809;27;20500;-83
2022/03/13 10:36:14;;;;;;;0.10;0.10;;;12.70;85.40;;;;;;5114267;28;20044;-84
2022/03/13 10:38:42;;;;;;;0.00;0.00;;;12.80;83.20;;;;;;5134621;27;20046;-85
2022/03/13 10:41:10;;;;;;;0.05;0.05;;;12.80;83.90;;;;;;5135204;27;20035;-83
2022/03/13 10:43:52;;;;;;;0.10;0.10;;;12.80;86.20;;;;;;5135692;27;20035;-85
2022/03/13 10:46:35;;;;;;;0.00;0.00;;;12.80;83.30;;;;;;5135127;27;20838;-85
2022/03/13 10:49:02;;;;;;;0.10;0.10;;;12.80;83.40;;;;;;5110214;27;20035;-85
2022/03/13 10:51:39;;;;;;;0.00;0.00;;;12.70;83.80;;;;;;5111678;28;20063;-84
2022/03/13 10:54:06;;;;;;;0.10;0.10;;;12.70;82.30;;;;;;5119886;27;20509;-86
2022/03/13 10:56:33;;;;;;;0.00;0.00;;;12.60;83.60;;;;;;5135216;27;20099;-84
2022/03/13 10:59:19;;;;;;;0.00;0.00;;;12.60;84.00;;;;;;5117403;27;20035;-86
2022/03/13 11:02:06;;;;;;;;;;;12.80;84.10;;;;;;5128554;27;20039;-86
2022/03/13 11:04:33;;;;;;;0.03;0.03;;;12.80;82.30;;;;;;5134681;27;20373;-83
2022/03/13 11:07:00;;;;;;;0.10;0.10;;;12.90;81.00;;;;;;5117222;27;20131;-85
2022/03/13 11:09:26;;;;;;;0.05;0.05;;;13.00;79.10;;;;;;5118291;27;20050;-86
2022/03/13 11:11:54;;;;;;;0.00;0.00;;;13.00;77.30;;;;;;5117562;27;20522;-84
2022/03/13 11:14:21;;;;;;;0.00;0.00;;;13.00;77.30;;;;;;5151634;27;20451;-85
2022/03/13 11:16:47;;;;;;;0.00;0.00;;;13.00;77.20;;;;;;5118070;27;20123;-85
2022/03/13 11:19:17;;;;;;;0.10;0.10;;;13.00;75.00;;;;;;5100451;27;20035;-86
2022/03/13 11:21:44;;;;;;;0.32;0.10;;;13.00;77.30;;;;;;5118115;27;20114;-85
2022/03/13 11:24:10;;;;;;;0.00;0.00;;;13.10;76.30;;;;;;5108228;28;20192;-86
2022/03/13 11:26:39;;;;;;;0.30;0.30;;;13.10;75.10;;;;;;5097776;28;20396;-85
2022/03/13 11:29:10;;;;;;;0.00;0.00;;;13.10;74.00;;;;;;5091059;27;20130;-85
2022/03/13 11:31:42;;;;;;;0.10;0.10;;;13.10;71.90;;;;;;5118825;27;20031;-85
2022/03/13 11:34:16;;;;;;;0.20;0.10;;;13.00;73.40;;;;;;5150652;27;20729;-85
2022/03/13 11:36:45;;;;;;;0.80;0.20;;;12.90;73.20;;;;;;5117925;27;20035;-84
2022/03/13 11:39:15;;;;;;;0.00;0.00;;;12.90;71.40;;;;;;5134258;27;20031;-84
2022/03/13 11:41:47;;;;;;;0.10;0.10;;;12.90;73.20;;;;;;5117786;27;20125;-85
2022/03/13 11:44:28;;;;;;;0.22;0.22;;;12.80;73.40;;;;;;5117551;27;20035;-85
2022/03/13 11:47:00;;;;;;;0.10;0.10;;;12.70;69.30;;;;;;5134338;27;20073;-85
2022/03/13 11:49:30;;;;;;;0.13;0.13;;;12.70;71.20;;;;;;5134252;27;20039;-85
2022/03/13 11:52:12;;;;;;;0.20;0.20;;;12.70;71.30;;;;;;5134112;27;20438;-84
2022/03/13 11:55:01;;;;;;;0.10;0.10;;;12.60;72.90;;;;;;5150982;27;20813;-85
2022/03/13 11:57:42;;;;;;;0.10;0.10;;;12.60;71.40;;;;;;5117177;27;20035;-84
2022/03/13 12:00:14;;;;;;;0.10;0.10;;;12.70;70.90;;;;;;5150449;27;20050;-85
2022/03/13 12:02:41;;;;;;;0.10;0.10;;;12.80;72.00;;;;;;5133993;27;20031;-85
2022/03/13 12:05:26;;;;;;;2.10;0.57;;;12.90;70.60;;;;;;5133377;27;20049;-85
2022/03/13 12:07:54;;;;;;;0.10;0.10;;;13.00;71.30;;;;;;5134000;27;20039;-86
2022/03/13 12:10:41;;;;;;;0.00;0.00;;;13.00;69.40;;;;;;5135039;27;20047;-85
2022/03/13 12:13:13;;;;;;;0.00;0.00;;;12.90;69.40;;;;;;5133876;27;20039;-84
2022/03/13 12:15:41;;;;;;;0.15;0.15;;;12.90;69.20;;;;;;5117282;27;20122;-86
2022/03/13 12:18:17;;;;;;;0.13;0.13;;;12.90;68.00;;;;;;5134227;27;20171;-85
2022/03/13 12:20:46;;;;;;;0.00;0.00;;;12.90;70.30;;;;;;5133643;27;20035;-85
2022/03/13 12:23:31;;;;;;;0.52;0.52;;;12.90;72.00;;;;;;5133541;27;20434;-85
2022/03/13 12:26:19;;;;;;;0.00;0.00;;;12.90;69.80;;;;;;5117598;27;20039;-84
2022/03/13 12:28:47;;;;;;;0.00;0.00;;;12.90;69.50;;;;;;5133373;27;20031;-85
2022/03/13 12:31:14;;;;;;;0.35;0.30;;;12.90;69.00;;;;;;5125231;27;20066;-84
2022/03/13 12:33:45;;;;;;;0.15;0.10;;;12.80;67.10;;;;;;5133465;27;20612;-84
2022/03/13 12:36:12;;;;;;;0.03;0.03;;;12.90;68.30;;;;;;5133403;27;20095;-85
2022/03/13 12:38:43;;;;;;;0.20;0.20;;;13.00;69.50;;;;;;5134017;27;20046;-84
2022/03/13 12:41:11;;;;;;;0.30;0.30;;;13.20;70.10;;;;;;5150994;27;20127;-84
2022/03/13 12:43:52;;;;;;;0.25;0.22;;;13.20;65.90;;;;;;5116871;27;20050;-84
2022/03/13 12:46:21;;;;;;;0.10;0.10;;;13.40;66.60;;;;;;5133642;27;20187;-85
2022/03/13 12:48:53;;;;;;;0.17;0.17;;;13.50;64.90;;;;;;5150971;27;20466;-84
2022/03/13 12:51:52;;;;;;;0.10;0.10;;;13.60;65.10;;;;;;5150856;27;20498;-84
2022/03/13 12:54:21;;;;;;;0.30;0.30;;;13.70;65.60;;;;;;5122312;27;20047;-85
2022/03/13 12:57:00;;;;;;;0.00;0.00;;;13.70;63.50;;;;;;5133360;27;20469;-82
2022/03/13 12:59:41;;;;;;;0.10;0.10;;;13.90;65.20;;;;;;5133593;27;20039;-83
2022/03/13 13:02:26;;;;;;;0.10;0.10;;;13.90;65.00;;;;;;5151564;28;20039;-85
2022/03/13 13:04:55;;;;;;;0.10;0.10;;;14.00;65.20;;;;;;5135331;28;20039;-85